createdAt,value
2022-11-20T00:01:10.375Z,96776.41
2022-11-20T00:03:36.703Z,96777.88
2022-11-20T00:06:03.371Z,96776.44
2022-11-20T00:08:29.731Z,96765.06
2022-11-20T00:10:56.110Z,96769.81
2022-11-20T00:13:22.494Z,96779.09
2022-11-20T00:15:48.844Z,96783.84
2022-11-20T00:18:15.165Z,96783.66
2022-11-20T00:20:41.469Z,96791.69
2022-11-20T00:23:07.784Z,96791.06
2022-11-20T00:25:34.132Z,96790.69
2022-11-20T00:28:00.497Z,96790.66
2022-11-20T00:30:26.965Z,96791.47
2022-11-20T00:32:53.328Z,96796.03
2022-11-20T00:35:19.767Z,96793.34
2022-11-20T00:37:46.181Z,96802.19
2022-11-20T00:40:12.631Z,96796.66
2022-11-20T00:42:39.059Z,96802.41
2022-11-20T00:45:05.638Z,96804.50
2022-11-20T00:47:31.989Z,96805.09
2022-11-20T00:50:00.636Z,96805.09
2022-11-20T00:52:27.015Z,96804.06
2022-11-20T00:54:53.399Z,96808.19
2022-11-20T00:57:19.754Z,96814.59
2022-11-20T00:59:46.137Z,96812.75
2022-11-20T01:02:15.587Z,96815.44
2022-11-20T01:04:41.968Z,96816.47
2022-11-20T01:07:08.367Z,96822.84
2022-11-20T01:09:34.804Z,96827.00
2022-11-20T01:12:01.245Z,96824.09
2022-11-20T01:14:27.608Z,96826.16
2022-11-20T01:16:53.974Z,96836.88
2022-11-20T01:19:20.868Z,96833.78
2022-11-20T01:21:47.476Z,96835.63
2022-11-20T01:24:13.951Z,96838.31
2022-11-20T01:26:40.399Z,96841.41
2022-11-20T01:29:06.755Z,96842.25
2022-11-20T01:31:33.133Z,96848.22
2022-11-20T01:33:59.624Z,96842.84
2022-11-20T01:36:26.237Z,96845.31
2022-11-20T01:38:52.569Z,96849.47
2022-11-20T01:41:19.094Z,96842.00
2022-11-20T01:43:45.466Z,96847.00
2022-11-20T01:46:11.840Z,96848.00
2022-11-20T01:48:38.224Z,96848.22
2022-11-20T01:51:04.642Z,96848.81
2022-11-20T01:53:31.055Z,96845.13
2022-11-20T01:55:57.435Z,96841.78
2022-11-20T01:58:23.827Z,96845.13
2022-11-20T02:00:50.209Z,96849.63
2022-11-20T02:03:16.669Z,96840.16
2022-11-20T02:05:47.227Z,96846.34
2022-11-20T02:08:13.573Z,96842.63
2022-11-20T02:10:40.105Z,96850.69
2022-11-20T02:13:06.526Z,96845.97
2022-11-20T02:15:32.925Z,96840.16
2022-11-20T02:17:59.304Z,96849.28
2022-11-20T02:20:26.822Z,96839.56
2022-11-20T02:22:53.372Z,96847.59
2022-11-20T02:25:22.493Z,96845.53
2022-11-20T02:27:48.937Z,96849.88
2022-11-20T02:30:15.292Z,96846.56
2022-11-20T02:32:41.930Z,96856.28
2022-11-20T02:35:08.338Z,96858.97
2022-11-20T02:37:34.875Z,96845.13
2022-11-20T02:40:01.230Z,96851.31
2022-11-20T02:42:27.594Z,96853.59
2022-11-20T02:44:54.016Z,96856.88
2022-11-20T02:47:20.582Z,96859.16
2022-11-20T02:49:46.915Z,96862.25
2022-11-20T02:52:13.254Z,96859.19
2022-11-20T02:54:39.615Z,96863.91
2022-11-20T02:57:05.947Z,96871.97
2022-11-20T02:59:32.288Z,96869.69
2022-11-20T03:01:58.603Z,96871.97
2022-11-20T03:04:25.019Z,96872.38
2022-11-20T03:06:51.390Z,96873.41
2022-11-20T03:09:17.797Z,96870.72
2022-11-20T03:11:44.375Z,96873.41
2022-11-20T03:14:10.791Z,96881.88
2022-11-20T03:16:37.122Z,96871.56
2022-11-20T03:19:11.054Z,96875.06
2022-11-20T03:21:37.620Z,96874.84
2022-11-20T03:24:03.952Z,96880.84
2022-11-20T03:26:30.280Z,96887.25
2022-11-20T03:28:56.842Z,96887.03
2022-11-20T03:31:23.196Z,96878.81
2022-11-20T03:33:49.804Z,96883.09
2022-11-20T03:36:16.132Z,96877.53
2022-11-20T03:38:42.462Z,96883.53
2022-11-20T03:41:08.971Z,96879.84
2022-11-20T03:43:35.382Z,96877.34
2022-11-20T03:46:01.749Z,96882.72
2022-11-20T03:48:28.132Z,96886.41
2022-11-20T03:50:54.491Z,96887.06
2022-11-20T03:53:20.978Z,96882.50
2022-11-20T03:55:48.551Z,96885.81
2022-11-20T03:58:14.875Z,96884.97
2022-11-20T04:00:41.275Z,96890.97
2022-11-20T04:03:07.635Z,96893.66
2022-11-20T04:05:33.983Z,96901.06
2022-11-20T04:08:00.387Z,96897.16
2022-11-20T04:10:26.763Z,96888.50
2022-11-20T04:12:53.175Z,96895.28
2022-11-20T04:15:19.521Z,96897.78
2022-11-20T04:17:45.873Z,96896.13
2022-11-20T04:20:12.406Z,96897.78
2022-11-20T04:22:39.193Z,96891.78
2022-11-20T04:25:05.526Z,96903.34
2022-11-20T04:27:31.871Z,96894.25
2022-11-20T04:29:58.321Z,96895.50
2022-11-20T04:32:24.687Z,96894.06
2022-11-20T04:34:51.041Z,96905.00
2022-11-20T04:37:17.483Z,96895.53
2022-11-20T04:39:43.833Z,96900.88
2022-11-20T04:42:10.244Z,96900.88
2022-11-20T04:44:36.650Z,96902.94
2022-11-20T04:47:03.199Z,96906.66
2022-11-20T04:49:29.657Z,96908.31
2022-11-20T04:51:56.006Z,96907.88
2022-11-20T04:54:22.368Z,96906.63
2022-11-20T04:56:48.893Z,96909.72
2022-11-20T04:59:15.369Z,96910.56
2022-11-20T05:01:41.962Z,96914.88
2022-11-20T05:04:08.474Z,96908.28
2022-11-20T05:06:34.813Z,96911.81
2022-11-20T05:09:01.146Z,96913.22
2022-11-20T05:11:27.485Z,96910.34
2022-11-20T05:13:53.881Z,96913.88
2022-11-20T05:16:20.233Z,96913.88
2022-11-20T05:18:46.859Z,96919.03
2022-11-20T05:21:13.230Z,96919.84
2022-11-20T05:23:39.567Z,96926.84
2022-11-20T05:26:05.917Z,96931.81
2022-11-20T05:28:32.345Z,96931.59
2022-11-20T05:30:58.715Z,96934.28
2022-11-20T05:33:25.299Z,96930.59
2022-11-20T05:35:51.631Z,96941.72
2022-11-20T05:38:18.035Z,96932.22
2022-11-20T05:40:44.389Z,96945.22
2022-11-20T05:43:10.714Z,96943.78
2022-11-20T05:45:37.038Z,96939.66
2022-11-20T05:48:03.360Z,96936.59
2022-11-20T05:50:29.747Z,96941.09
2022-11-20T05:52:56.096Z,96942.16
2022-11-20T05:55:22.509Z,96944.19
2022-11-20T05:57:49.052Z,96945.44
2022-11-20T06:00:15.446Z,96943.34
2022-11-20T06:02:41.981Z,96942.50
2022-11-20T06:05:08.446Z,96946.63
2022-11-20T06:07:34.819Z,96946.41
2022-11-20T06:10:01.167Z,96948.06
2022-11-20T06:12:27.539Z,96945.38
2022-11-20T06:14:53.920Z,96939.00
2022-11-20T06:17:20.413Z,96927.22
2022-11-20T06:19:46.796Z,96924.53
2022-11-20T06:22:13.128Z,96925.56
2022-11-20T06:24:39.510Z,96915.66
2022-11-20T06:27:06.052Z,96911.31
2022-11-20T06:29:34.090Z,96904.91
2022-11-20T06:32:00.704Z,96907.81
2022-11-20T06:34:27.058Z,96899.97
2022-11-20T06:36:53.495Z,96906.16
2022-11-20T06:39:20.335Z,96906.56
2022-11-20T06:41:47.082Z,96900.34
2022-11-20T06:44:13.431Z,96896.84
2022-11-20T06:46:39.787Z,96904.25
2022-11-20T06:49:06.141Z,96913.94
2022-11-20T06:51:32.733Z,96916.66
2022-11-20T06:53:59.110Z,96917.69
2022-11-20T06:56:25.434Z,96921.44
2022-11-20T06:58:51.846Z,96916.06
2022-11-20T07:01:18.271Z,96926.38
2022-11-20T07:03:44.670Z,96925.75
2022-11-20T07:06:11.094Z,96925.31
2022-11-20T07:08:37.776Z,96923.28
2022-11-20T07:11:04.122Z,96924.75
2022-11-20T07:13:30.576Z,96935.25
2022-11-20T07:15:57.079Z,96934.41
2022-11-20T07:18:23.506Z,96943.31
2022-11-20T07:20:49.949Z,96942.66
2022-11-20T07:23:16.480Z,96951.09
2022-11-20T07:25:42.928Z,96940.19
2022-11-20T07:28:09.305Z,96949.84
2022-11-20T07:30:35.665Z,96954.19
2022-11-20T07:33:02.078Z,96959.78
2022-11-20T07:35:28.553Z,96963.50
2022-11-20T07:37:54.955Z,96964.75
2022-11-20T07:40:21.417Z,96964.72
2022-11-20T07:42:47.831Z,96975.47
2022-11-20T07:45:14.183Z,96974.03
2022-11-20T07:47:40.564Z,96971.75
2022-11-20T07:50:07.424Z,96981.06
2022-11-20T07:52:34.013Z,96975.50
2022-11-20T07:55:00.545Z,96972.59
2022-11-20T07:57:28.505Z,96965.00
2022-11-20T07:59:55.114Z,96967.94
2022-11-20T08:02:21.506Z,96962.97
2022-11-20T08:04:47.939Z,96958.63
2022-11-20T08:07:14.393Z,96959.06
2022-11-20T08:09:40.844Z,96955.16
2022-11-20T08:12:07.220Z,96957.84
2022-11-20T08:14:33.606Z,96964.44
2022-11-20T08:16:59.960Z,96962.16
2022-11-20T08:19:26.320Z,96971.88
2022-11-20T08:21:52.690Z,96964.44
2022-11-20T08:24:19.091Z,96966.72
2022-11-20T08:26:45.579Z,96975.19
2022-11-20T08:29:11.929Z,96968.78
2022-11-20T08:31:38.363Z,96974.38
2022-11-20T08:34:08.947Z,96979.16
2022-11-20T08:36:35.937Z,96979.75
2022-11-20T08:39:02.307Z,96974.38
2022-11-20T08:41:28.785Z,96973.34
2022-11-20T08:43:55.162Z,96969.41
2022-11-20T08:46:21.643Z,96978.72
2022-11-20T08:48:47.980Z,96977.91
2022-11-20T08:51:14.367Z,96982.22
2022-11-20T08:53:40.770Z,96982.63
2022-11-20T08:56:07.129Z,96981.81
2022-11-20T08:58:55.081Z,96981.00
2022-11-20T09:01:22.314Z,96975.81
2022-11-20T09:03:48.702Z,96979.53
2022-11-20T09:06:15.129Z,96985.13
2022-11-20T09:08:41.532Z,96986.78
2022-11-20T09:11:07.957Z,96984.72
2022-11-20T09:13:34.322Z,96988.84
2022-11-20T09:16:00.748Z,96987.41
2022-11-20T09:18:27.083Z,96983.25
2022-11-20T09:20:53.490Z,96982.22
2022-11-20T09:23:19.855Z,96978.94
2022-11-20T09:25:46.273Z,96975.41
2022-11-20T09:28:12.657Z,96984.09
2022-11-20T09:30:39.024Z,96973.97
2022-11-20T09:33:05.594Z,96992.97
2022-11-20T09:35:31.986Z,96992.16
2022-11-20T09:37:58.389Z,97000.81
2022-11-20T09:40:24.752Z,96997.09
2022-11-20T09:42:51.201Z,97003.69
2022-11-20T09:45:17.557Z,96997.31
2022-11-20T09:47:43.922Z,96994.00
2022-11-20T09:50:10.364Z,96998.97
2022-11-20T09:52:38.141Z,96999.59
2022-11-20T09:55:04.562Z,97001.03
2022-11-20T09:57:31.042Z,96998.34
2022-11-20T09:59:57.481Z,96997.53
2022-11-20T10:02:23.860Z,97001.25
2022-11-20T10:04:50.288Z,97001.84
2022-11-20T10:07:31.729Z,96995.69
2022-11-20T10:09:58.570Z,96999.38
2022-11-20T10:12:24.969Z,96997.50
2022-11-20T10:14:51.337Z,96995.88
2022-11-20T10:17:17.731Z,96986.59
2022-11-20T10:19:44.146Z,96988.66
2022-11-20T10:22:11.650Z,96992.34
2022-11-20T10:24:38.033Z,96993.19
2022-11-20T10:27:04.417Z,96987.41
2022-11-20T10:29:34.021Z,96990.50
2022-11-20T10:32:00.389Z,96993.38
2022-11-20T10:34:27.867Z,96985.53
2022-11-20T10:36:54.308Z,96979.34
2022-11-20T10:39:21.009Z,96973.97
2022-11-20T10:41:47.709Z,96971.31
2022-11-20T10:44:16.827Z,96966.75
2022-11-20T10:46:43.166Z,96973.13
2022-11-20T10:49:09.558Z,96977.06
2022-11-20T10:51:36.244Z,96971.91
2022-11-20T10:54:02.790Z,96967.13
2022-11-20T10:56:31.246Z,96970.47
2022-11-20T10:58:57.599Z,96962.78
2022-11-20T11:01:24.041Z,96968.81
2022-11-20T11:03:50.490Z,96968.38
2022-11-20T11:06:16.883Z,96976.22
2022-11-20T11:08:43.260Z,96979.56
2022-11-20T11:11:12.680Z,96974.19
2022-11-20T11:13:39.067Z,96968.59
2022-11-20T11:16:05.471Z,96965.28
2022-11-20T11:18:31.834Z,96963.66
2022-11-20T11:21:01.110Z,96963.00
2022-11-20T11:23:27.484Z,96955.78
2022-11-20T11:25:53.908Z,96946.28
2022-11-20T11:28:20.263Z,96941.34
2022-11-20T11:30:46.804Z,96944.03
2022-11-20T11:33:13.229Z,96938.00
2022-11-20T11:35:39.603Z,96941.94
2022-11-20T11:38:05.969Z,96941.50
2022-11-20T11:40:32.402Z,96938.81
2022-11-20T11:42:58.891Z,96929.75
2022-11-20T11:45:25.551Z,96918.16
2022-11-20T11:47:52.342Z,96910.72
2022-11-20T11:50:18.754Z,96900.19
2022-11-20T11:52:45.078Z,96900.84
2022-11-20T11:55:11.888Z,96894.41
2022-11-20T11:57:38.388Z,96886.78
2022-11-20T12:00:04.720Z,96881.59
2022-11-20T12:02:31.196Z,96866.88
2022-11-20T12:04:57.629Z,96861.88
2022-11-20T12:07:45.517Z,96856.91
2022-11-20T12:10:10.371Z,96843.66
2022-11-20T12:12:36.774Z,96843.88
2022-11-20T12:15:03.132Z,96839.34
2022-11-20T12:17:31.137Z,96843.06
2022-11-20T12:20:00.400Z,96830.03
2022-11-20T12:22:26.762Z,96832.47
2022-11-20T12:24:53.161Z,96820.88
2022-11-20T12:27:19.494Z,96817.78
2022-11-20T12:29:45.870Z,96821.69
2022-11-20T12:32:12.275Z,96821.28
2022-11-20T12:34:38.953Z,96814.28
2022-11-20T12:37:05.287Z,96811.75
2022-11-20T12:39:31.649Z,96802.66
2022-11-20T12:41:58.094Z,96788.19
2022-11-20T12:44:24.666Z,96795.16
2022-11-20T12:46:51.359Z,96795.16
2022-11-20T12:49:20.149Z,96803.84
2022-11-20T12:51:46.763Z,96802.56
2022-11-20T12:54:13.225Z,96802.00
2022-11-20T12:56:39.645Z,96811.16
2022-11-20T12:59:06.025Z,96809.72
2022-11-20T13:01:32.527Z,96791.69
2022-11-20T13:03:59.986Z,96784.47
2022-11-20T13:06:26.386Z,96776.38
2022-11-20T13:08:52.762Z,96779.44
2022-11-20T13:11:19.447Z,96785.25
2022-11-20T13:13:45.893Z,96788.97
2022-11-20T13:16:14.491Z,96780.47
2022-11-20T13:18:41.161Z,96787.28
2022-11-20T13:21:07.574Z,96785.41
2022-11-20T13:23:33.992Z,96792.09
2022-11-20T13:26:00.429Z,96792.75
2022-11-20T13:28:26.836Z,96797.34
2022-11-20T13:30:53.291Z,96800.25
2022-11-20T13:33:19.701Z,96802.38
2022-11-20T13:35:46.184Z,96800.88
2022-11-20T13:38:12.599Z,96799.91
2022-11-20T13:40:39.001Z,96797.47
2022-11-20T13:43:05.389Z,96788.38
2022-11-20T13:45:34.782Z,96788.81
2022-11-20T13:48:01.145Z,96806.97
2022-11-20T13:50:29.680Z,96806.13
2022-11-20T13:52:56.087Z,96799.59
2022-11-20T13:55:23.609Z,96790.63
2022-11-20T13:57:49.994Z,96786.06
2022-11-20T14:00:16.464Z,96785.81
2022-11-20T14:02:42.894Z,96778.53
2022-11-20T14:05:09.308Z,96778.47
2022-11-20T14:07:35.881Z,96770.16
2022-11-20T14:10:02.344Z,96773.63
2022-11-20T14:12:28.783Z,96765.34
2022-11-20T14:14:55.201Z,96759.53
2022-11-20T14:17:21.581Z,96764.50
2022-11-20T14:19:47.910Z,96765.75
2022-11-20T14:22:16.199Z,96768.69
2022-11-20T14:24:42.629Z,96768.13
2022-11-20T14:27:09.013Z,96765.25
2022-11-20T14:29:35.378Z,96765.88
2022-11-20T14:32:01.774Z,96768.56
2022-11-20T14:34:28.151Z,96753.25
2022-11-20T14:36:54.591Z,96746.00
2022-11-20T14:39:20.954Z,96757.38
2022-11-20T14:41:47.342Z,96753.22
2022-11-20T14:44:13.702Z,96743.13
2022-11-20T14:46:46.168Z,96730.47
2022-11-20T14:49:12.633Z,96730.81
2022-11-20T14:51:39.054Z,96723.78
2022-11-20T14:54:05.455Z,96728.88
2022-11-20T14:56:32.117Z,96719.72
2022-11-20T14:58:58.645Z,96722.19
2022-11-20T15:01:25.045Z,96724.88
2022-11-20T15:03:51.489Z,96717.38
2022-11-20T15:06:17.862Z,96713.66
2022-11-20T15:08:44.267Z,96714.69
2022-11-20T15:11:10.717Z,96713.06
2022-11-20T15:13:37.092Z,96709.75
2022-11-20T15:16:03.537Z,96719.13
2022-11-20T15:18:29.942Z,96704.38
2022-11-20T15:20:56.448Z,96708.28
2022-11-20T15:23:22.785Z,96698.56
2022-11-20T15:25:49.170Z,96701.47
2022-11-20T15:28:15.771Z,96703.34
2022-11-20T15:30:42.156Z,96701.91
2022-11-20T15:33:08.544Z,96696.75
2022-11-20T15:35:35.057Z,96694.91
2022-11-20T15:38:01.531Z,96694.69
2022-11-20T15:40:28.018Z,96688.69
2022-11-20T15:42:54.523Z,96693.47
2022-11-20T15:45:20.925Z,96689.56
2022-11-20T15:47:47.381Z,96696.00
2022-11-20T15:50:13.754Z,96706.38
2022-11-20T15:52:42.281Z,96705.34
2022-11-20T15:55:09.864Z,96699.75
2022-11-20T15:57:36.616Z,96705.34
2022-11-20T16:00:03.055Z,96704.13
2022-11-20T16:02:29.464Z,96700.81
2022-11-20T16:04:55.855Z,96702.13
2022-11-20T16:07:22.419Z,96694.22
2022-11-20T16:09:48.789Z,96690.16
2022-11-20T16:12:15.162Z,96688.09
2022-11-20T16:14:41.557Z,96676.13
2022-11-20T16:17:07.971Z,96672.25
2022-11-20T16:19:34.334Z,96693.75
2022-11-20T16:22:02.996Z,96708.03
2022-11-20T16:24:29.615Z,96713.63
2022-11-20T16:26:56.001Z,96722.91
2022-11-20T16:29:22.509Z,96722.31
2022-11-20T16:31:48.912Z,96723.94
2022-11-20T16:34:15.369Z,96734.31
2022-11-20T16:36:41.724Z,96741.34
2022-11-20T16:39:08.261Z,96746.06
2022-11-20T16:41:34.677Z,96741.75
2022-11-20T16:44:01.157Z,96745.66
2022-11-20T16:46:27.619Z,96736.13
2022-11-20T16:48:54.089Z,96723.53
2022-11-20T16:51:20.501Z,96730.38
2022-11-20T16:53:47.033Z,96716.16
2022-11-20T16:56:13.464Z,96732.06
2022-11-20T16:58:39.890Z,96727.50
2022-11-20T17:01:06.423Z,96733.28
2022-11-20T17:03:33.087Z,96729.53
2022-11-20T17:05:59.517Z,96732.84
2022-11-20T17:08:25.936Z,96736.97
2022-11-20T17:10:52.322Z,96744.81
2022-11-20T17:13:18.728Z,96738.16
2022-11-20T17:15:45.159Z,96745.19
2022-11-20T17:18:11.574Z,96751.38
2022-11-20T17:20:37.928Z,96757.38
2022-11-20T17:23:05.354Z,96765.00
2022-11-20T17:25:31.797Z,96770.38
2022-11-20T17:27:58.171Z,96777.41
2022-11-20T17:30:24.593Z,96794.00
2022-11-20T17:32:54.003Z,96795.63
2022-11-20T17:35:21.108Z,96793.94
2022-11-20T17:37:50.441Z,96808.22
2022-11-20T17:40:16.892Z,96805.56
2022-11-20T17:42:43.449Z,96805.56
2022-11-20T17:45:09.945Z,96799.59
2022-11-20T17:47:37.613Z,96797.59
2022-11-20T17:50:04.221Z,96795.25
2022-11-20T17:52:30.655Z,96792.13
2022-11-20T17:54:57.029Z,96792.34
2022-11-20T17:57:23.557Z,96790.31
2022-11-20T17:59:49.993Z,96787.44
2022-11-20T18:02:18.432Z,96792.34
2022-11-20T18:04:47.266Z,96794.00
2022-11-20T18:07:13.792Z,96803.53
2022-11-20T18:09:40.221Z,96807.25
2022-11-20T18:12:09.026Z,96798.19
2022-11-20T18:14:35.449Z,96798.56
2022-11-20T18:17:01.799Z,96789.41
2022-11-20T18:19:32.155Z,96796.03
2022-11-20T18:21:58.947Z,96793.94
2022-11-20T18:24:25.589Z,96800.97
2022-11-20T18:26:52.261Z,96813.38
2022-11-20T18:29:18.786Z,96833.63
2022-11-20T18:31:45.122Z,96836.69
2022-11-20T18:34:11.834Z,96826.75
2022-11-20T18:36:38.176Z,96814.16
2022-11-20T18:39:07.770Z,96827.59
2022-11-20T18:41:34.208Z,96828.47
2022-11-20T18:44:00.716Z,96841.06
2022-11-20T18:46:27.262Z,96849.56
2022-11-20T18:48:53.675Z,96835.94
2022-11-20T18:51:20.768Z,96818.81
2022-11-20T18:53:48.803Z,96818.66
2022-11-20T18:56:15.244Z,96817.63
2022-11-20T18:58:41.811Z,96815.97
2022-11-20T19:01:08.320Z,96814.53
2022-11-20T19:03:34.757Z,96825.31
2022-11-20T19:06:01.150Z,96829.50
2022-11-20T19:08:27.624Z,96838.00
2022-11-20T19:10:54.012Z,96834.72
2022-11-20T19:13:20.496Z,96822.16
2022-11-20T19:15:46.847Z,96822.78
2022-11-20T19:18:13.280Z,96836.63
2022-11-20T19:20:39.692Z,96833.94
2022-11-20T19:23:06.047Z,96839.94
2022-11-20T19:25:37.691Z,96841.41
2022-11-20T19:28:04.658Z,96847.41
2022-11-20T19:30:30.982Z,96855.47
2022-11-20T19:32:57.424Z,96848.81
2022-11-20T19:35:23.816Z,96856.28
2022-11-20T19:37:50.233Z,96858.75
2022-11-20T19:40:16.625Z,96862.28
2022-11-20T19:42:43.086Z,96877.97
2022-11-20T19:45:09.483Z,96871.78
2022-11-20T19:48:05.972Z,96880.84
2022-11-20T19:50:22.729Z,96890.56
2022-11-20T19:52:51.072Z,96895.91
2022-11-20T19:55:21.969Z,96900.66
2022-11-20T19:57:48.353Z,96907.66
2022-11-20T20:00:18.271Z,96912.00
2022-11-20T20:02:48.606Z,96923.16
2022-11-20T20:05:15.043Z,96926.66
2022-11-20T20:07:41.444Z,96927.47
2022-11-20T20:10:07.869Z,96934.72
2022-11-20T20:12:34.230Z,96946.69
2022-11-20T20:15:00.776Z,96949.56
2022-11-20T20:17:27.272Z,96943.78
2022-11-20T20:19:53.710Z,96943.94
2022-11-20T20:22:20.206Z,96956.91
2022-11-20T20:24:46.951Z,96955.88
2022-11-20T20:27:13.396Z,96945.56
2022-11-20T20:29:43.875Z,96945.56
2022-11-20T20:32:10.353Z,96950.72
2022-11-20T20:34:36.762Z,96939.38
2022-11-20T20:37:03.237Z,96941.63
2022-11-20T20:39:29.663Z,96948.03
2022-11-20T20:41:57.110Z,96958.19
2022-11-20T20:44:23.837Z,96969.31
2022-11-20T20:46:50.189Z,96979.63
2022-11-20T20:49:16.553Z,96982.31
2022-11-20T20:51:43.037Z,96978.41
2022-11-20T20:54:09.422Z,96973.25
2022-11-20T20:56:35.789Z,96970.34
2022-11-20T20:59:02.187Z,96975.06
2022-11-20T21:01:29.065Z,96976.06
2022-11-20T21:03:56.108Z,96969.94
2022-11-20T21:06:22.571Z,96972.41
2022-11-20T21:08:49.215Z,96974.91
2022-11-20T21:11:15.658Z,96980.50
2022-11-20T21:13:42.095Z,96988.78
2022-11-20T21:16:08.507Z,96988.56
2022-11-20T21:18:34.855Z,96988.97
2022-11-20T21:21:01.219Z,96998.69
2022-11-20T21:23:27.609Z,97002.22
2022-11-20T21:25:54.192Z,97009.44
2022-11-20T21:28:20.556Z,97011.09
2022-11-20T21:30:46.895Z,97005.72
2022-11-20T21:33:13.260Z,97010.44
2022-11-20T21:35:39.852Z,97026.53
2022-11-20T21:38:06.325Z,97013.78
2022-11-20T21:40:32.674Z,97008.41
2022-11-20T21:42:59.033Z,97025.72
2022-11-20T21:45:25.548Z,97032.13
2022-11-20T21:47:51.931Z,97037.09
2022-11-20T21:50:21.206Z,97036.69
2022-11-20T21:52:47.697Z,97028.44
2022-11-20T21:55:14.162Z,97029.50
2022-11-20T21:57:40.804Z,97035.66
2022-11-20T22:00:07.270Z,97042.28
2022-11-20T22:02:33.682Z,97035.91
2022-11-20T22:05:00.117Z,97027.63
2022-11-20T22:07:26.599Z,97033.41
2022-11-20T22:09:53.211Z,97016.47
2022-11-20T22:12:19.528Z,97002.03
2022-11-20T22:14:45.892Z,96986.75
2022-11-20T22:17:12.192Z,96981.56
2022-11-20T22:19:38.630Z,96975.97
2022-11-20T22:22:04.978Z,96978.06
2022-11-20T22:24:31.384Z,96975.78
2022-11-20T22:26:57.731Z,96988.38
2022-11-20T22:29:24.272Z,96976.22
2022-11-20T22:31:50.729Z,96965.69
2022-11-20T22:34:17.111Z,96963.19
2022-11-20T22:36:43.547Z,96966.91
2022-11-20T22:39:09.879Z,96969.38
2022-11-20T22:41:36.191Z,96966.06
2022-11-20T22:44:02.576Z,96960.03
2022-11-20T22:46:28.993Z,96973.31
2022-11-20T22:48:55.448Z,96975.56
2022-11-20T22:51:21.864Z,96992.94
2022-11-20T22:53:48.381Z,96987.97
2022-11-20T22:56:14.704Z,96987.38
2022-11-20T22:58:41.038Z,96988.00
2022-11-20T23:01:07.390Z,96982.44
2022-11-20T23:03:34.036Z,96977.88
2022-11-20T23:06:00.472Z,96978.72
2022-11-20T23:08:26.834Z,96985.09
2022-11-20T23:10:53.251Z,96978.91
2022-11-20T23:13:19.749Z,96970.66
2022-11-20T23:15:46.351Z,96976.25
2022-11-20T23:18:12.795Z,96979.34
2022-11-20T23:20:39.181Z,96993.38
2022-11-20T23:23:05.602Z,96990.91
2022-11-20T23:25:31.961Z,96986.75
2022-11-20T23:27:58.374Z,96988.44
2022-11-20T23:30:24.809Z,96988.44
2022-11-20T23:32:51.198Z,96992.56
2022-11-20T23:35:17.529Z,96996.88
2022-11-20T23:37:44.130Z,96990.25
2022-11-20T23:40:10.527Z,96987.19
2022-11-20T23:42:36.926Z,96979.72
2022-11-20T23:45:03.311Z,96982.41
2022-11-20T23:47:29.644Z,96983.69
2022-11-20T23:49:55.976Z,96988.84
2022-11-20T23:52:22.329Z,96990.88
2022-11-20T23:54:48.739Z,96981.00
2022-11-20T23:57:15.128Z,96975.00
2022-11-20T23:59:41.623Z,96971.06
